sensor_id;sensor_type;location;lat;lon;timestamp;P1;durP1;ratioP1;P2;durP2;ratioP2
4794;SDS011;2411;47.060;15.064;2022-08-03T00:01:25;2.80;;;2.40;;
4794;SDS011;2411;47.060;15.064;2022-08-03T00:03:52;3.50;;;2.73;;
4794;SDS011;2411;47.060;15.064;2022-08-03T00:06:19;3.43;;;2.47;;
4794;SDS011;2411;47.060;15.064;2022-08-03T00:08:46;3.43;;;3.13;;
4794;SDS011;2411;47.060;15.064;2022-08-03T00:11:13;3.20;;;3.00;;
4794;SDS011;2411;47.060;15.064;2022-08-03T00:13:40;3.03;;;2.83;;
4794;SDS011;2411;47.060;15.064;2022-08-03T00:16:07;4.23;;;2.53;;
4794;SDS011;2411;47.060;15.064;2022-08-03T00:18:34;4.80;;;2.80;;
4794;SDS011;2411;47.060;15.064;2022-08-03T00:21:01;3.57;;;2.40;;
4794;SDS011;2411;47.060;15.064;2022-08-03T00:23:29;3.00;;;2.70;;
4794;SDS011;2411;47.060;15.064;2022-08-03T00:26:16;7.30;;;2.90;;
4794;SDS011;2411;47.060;15.064;2022-08-03T00:28:43;2.70;;;2.60;;
4794;SDS011;2411;47.060;15.064;2022-08-03T00:31:09;5.47;;;2.77;;
4794;SDS011;2411;47.060;15.064;2022-08-03T00:33:38;2.50;;;2.40;;
4794;SDS011;2411;47.060;15.064;2022-08-03T00:36:25;2.67;;;2.57;;
4794;SDS011;2411;47.060;15.064;2022-08-03T00:38:52;6.00;;;2.73;;
4794;SDS011;2411;47.060;15.064;2022-08-03T00:41:19;2.77;;;2.57;;
4794;SDS011;2411;47.060;15.064;2022-08-03T00:43:46;2.40;;;2.30;;
4794;SDS011;2411;47.060;15.064;2022-08-03T00:46:13;3.80;;;2.67;;
4794;SDS011;2411;47.060;15.064;2022-08-03T00:48:51;2.77;;;2.57;;
4794;SDS011;2411;47.060;15.064;2022-08-03T00:51:19;3.33;;;2.97;;
4794;SDS011;2411;47.060;15.064;2022-08-03T00:53:48;2.97;;;2.77;;
4794;SDS011;2411;47.060;15.064;2022-08-03T00:56:15;4.10;;;2.90;;
4794;SDS011;2411;47.060;15.064;2022-08-03T00:58:43;5.10;;;2.60;;
4794;SDS011;2411;47.060;15.064;2022-08-03T01:01:12;4.40;;;2.60;;
4794;SDS011;2411;47.060;15.064;2022-08-03T01:03:39;3.80;;;2.50;;
4794;SDS011;2411;47.060;15.064;2022-08-03T01:06:11;2.97;;;2.77;;
4794;SDS011;2411;47.060;15.064;2022-08-03T01:14:29;3.03;;;2.83;;
4794;SDS011;2411;47.060;15.064;2022-08-03T01:17:12;3.50;;;3.20;;
4794;SDS011;2411;47.060;15.064;2022-08-03T01:22:35;2.80;;;2.60;;
4794;SDS011;2411;47.060;15.064;2022-08-03T01:25:34;2.70;;;2.57;;
4794;SDS011;2411;47.060;15.064;2022-08-03T01:28:13;5.67;;;2.50;;
4794;SDS011;2411;47.060;15.064;2022-08-03T01:30:55;4.63;;;3.07;;
4794;SDS011;2411;47.060;15.064;2022-08-03T01:33:33;2.30;;;2.10;;
4794;SDS011;2411;47.060;15.064;2022-08-03T01:36:03;2.70;;;2.50;;
4794;SDS011;2411;47.060;15.064;2022-08-03T01:38:34;5.17;;;2.70;;
4794;SDS011;2411;47.060;15.064;2022-08-03T01:41:04;2.97;;;2.77;;
4794;SDS011;2411;47.060;15.064;2022-08-03T01:43:36;6.93;;;3.07;;
4794;SDS011;2411;47.060;15.064;2022-08-03T01:46:28;2.70;;;2.50;;
4794;SDS011;2411;47.060;15.064;2022-08-03T01:48:56;5.07;;;3.20;;
4794;SDS011;2411;47.060;15.064;2022-08-03T01:51:24;3.80;;;2.77;;
4794;SDS011;2411;47.060;15.064;2022-08-03T01:54:13;4.50;;;2.70;;
4794;SDS011;2411;47.060;15.064;2022-08-03T01:56:41;2.97;;;2.70;;
4794;SDS011;2411;47.060;15.064;2022-08-03T01:59:09;2.97;;;2.67;;
4794;SDS011;2411;47.060;15.064;2022-08-03T02:01:37;3.20;;;2.90;;
4794;SDS011;2411;47.060;15.064;2022-08-03T02:04:26;4.73;;;3.17;;
4794;SDS011;2411;47.060;15.064;2022-08-03T02:06:54;3.50;;;2.80;;
4794;SDS011;2411;47.060;15.064;2022-08-03T02:09:28;3.10;;;2.90;;
4794;SDS011;2411;47.060;15.064;2022-08-03T02:11:56;2.67;;;2.47;;
4794;SDS011;2411;47.060;15.064;2022-08-03T02:14:24;2.63;;;2.53;;
4794;SDS011;2411;47.060;15.064;2022-08-03T02:16:53;3.57;;;3.00;;
4794;SDS011;2411;47.060;15.064;2022-08-03T02:19:21;3.60;;;3.40;;
4794;SDS011;2411;47.060;15.064;2022-08-03T02:21:50;5.97;;;2.90;;
4794;SDS011;2411;47.060;15.064;2022-08-03T02:24:26;5.03;;;3.10;;
4794;SDS011;2411;47.060;15.064;2022-08-03T02:26:54;5.60;;;3.10;;
4794;SDS011;2411;47.060;15.064;2022-08-03T02:29:22;4.63;;;3.07;;
4794;SDS011;2411;47.060;15.064;2022-08-03T02:32:06;3.40;;;2.33;;
4794;SDS011;2411;47.060;15.064;2022-08-03T02:34:37;2.90;;;2.80;;
4794;SDS011;2411;47.060;15.064;2022-08-03T02:37:07;2.90;;;2.73;;
4794;SDS011;2411;47.060;15.064;2022-08-03T02:39:37;3.20;;;2.90;;
4794;SDS011;2411;47.060;15.064;2022-08-03T02:42:07;3.90;;;3.43;;
4794;SDS011;2411;47.060;15.064;2022-08-03T02:44:38;2.57;;;2.37;;
4794;SDS011;2411;47.060;15.064;2022-08-03T02:47:09;2.80;;;2.50;;
4794;SDS011;2411;47.060;15.064;2022-08-03T02:49:37;3.97;;;2.30;;
4794;SDS011;2411;47.060;15.064;2022-08-03T02:52:17;2.67;;;2.47;;
4794;SDS011;2411;47.060;15.064;2022-08-03T02:54:47;3.00;;;2.80;;
4794;SDS011;2411;47.060;15.064;2022-08-03T02:57:17;2.57;;;2.37;;
4794;SDS011;2411;47.060;15.064;2022-08-03T02:59:45;2.67;;;2.57;;
4794;SDS011;2411;47.060;15.064;2022-08-03T03:02:13;4.70;;;2.93;;
4794;SDS011;2411;47.060;15.064;2022-08-03T03:04:42;2.63;;;2.53;;
4794;SDS011;2411;47.060;15.064;2022-08-03T03:07:30;4.57;;;2.83;;
4794;SDS011;2411;47.060;15.064;2022-08-03T03:10:18;3.87;;;2.50;;
4794;SDS011;2411;47.060;15.064;2022-08-03T03:12:50;2.73;;;2.57;;
4794;SDS011;2411;47.060;15.064;2022-08-03T03:15:23;2.60;;;2.50;;
4794;SDS011;2411;47.060;15.064;2022-08-03T03:17:52;4.93;;;2.93;;
4794;SDS011;2411;47.060;15.064;2022-08-03T03:20:20;3.70;;;2.70;;
4794;SDS011;2411;47.060;15.064;2022-08-03T03:22:55;2.50;;;2.30;;
4794;SDS011;2411;47.060;15.064;2022-08-03T03:25:25;3.43;;;2.90;;
4794;SDS011;2411;47.060;15.064;2022-08-03T03:28:01;5.10;;;2.70;;
4794;SDS011;2411;47.060;15.064;2022-08-03T03:30:31;2.67;;;2.47;;
4794;SDS011;2411;47.060;15.064;2022-08-03T03:32:59;2.80;;;2.57;;
4794;SDS011;2411;47.060;15.064;2022-08-03T03:35:26;3.00;;;2.43;;
4794;SDS011;2411;47.060;15.064;2022-08-03T03:37:54;2.87;;;2.67;;
4794;SDS011;2411;47.060;15.064;2022-08-03T03:40:22;7.53;;;3.23;;
4794;SDS011;2411;47.060;15.064;2022-08-03T03:42:49;2.20;;;2.10;;
4794;SDS011;2411;47.060;15.064;2022-08-03T03:45:16;2.80;;;2.50;;
4794;SDS011;2411;47.060;15.064;2022-08-03T03:47:43;3.17;;;2.70;;
4794;SDS011;2411;47.060;15.064;2022-08-03T03:50:11;4.30;;;3.90;;
4794;SDS011;2411;47.060;15.064;2022-08-03T03:52:38;3.60;;;3.30;;
4794;SDS011;2411;47.060;15.064;2022-08-03T03:55:05;3.27;;;2.93;;
4794;SDS011;2411;47.060;15.064;2022-08-03T03:57:32;3.33;;;2.90;;
4794;SDS011;2411;47.060;15.064;2022-08-03T04:00:00;8.00;;;3.07;;
4794;SDS011;2411;47.060;15.064;2022-08-03T04:02:27;2.43;;;2.20;;
4794;SDS011;2411;47.060;15.064;2022-08-03T04:04:54;4.10;;;3.00;;
4794;SDS011;2411;47.060;15.064;2022-08-03T04:07:44;4.87;;;3.00;;
4794;SDS011;2411;47.060;15.064;2022-08-03T04:10:35;2.20;;;2.10;;
4794;SDS011;2411;47.060;15.064;2022-08-03T04:13:29;4.37;;;2.53;;
4794;SDS011;2411;47.060;15.064;2022-08-03T04:16:00;4.33;;;2.43;;
4794;SDS011;2411;47.060;15.064;2022-08-03T04:18:28;3.47;;;2.20;;
4794;SDS011;2411;47.060;15.064;2022-08-03T04:21:00;4.80;;;2.53;;
4794;SDS011;2411;47.060;15.064;2022-08-03T04:23:30;2.60;;;2.40;;
4794;SDS011;2411;47.060;15.064;2022-08-03T04:26:01;2.73;;;2.53;;
4794;SDS011;2411;47.060;15.064;2022-08-03T04:28:29;2.50;;;2.40;;
4794;SDS011;2411;47.060;15.064;2022-08-03T04:30:58;4.67;;;2.60;;
4794;SDS011;2411;47.060;15.064;2022-08-03T04:33:28;7.43;;;2.60;;
4794;SDS011;2411;47.060;15.064;2022-08-03T04:36:03;2.83;;;2.63;;
4794;SDS011;2411;47.060;15.064;2022-08-03T04:38:35;2.73;;;2.37;;
4794;SDS011;2411;47.060;15.064;2022-08-03T04:41:04;3.20;;;2.93;;
4794;SDS011;2411;47.060;15.064;2022-08-03T04:43:33;5.53;;;2.57;;
4794;SDS011;2411;47.060;15.064;2022-08-03T04:46:01;2.43;;;2.10;;
4794;SDS011;2411;47.060;15.064;2022-08-03T04:48:29;2.37;;;2.27;;
4794;SDS011;2411;47.060;15.064;2022-08-03T04:50:56;2.67;;;2.50;;
4794;SDS011;2411;47.060;15.064;2022-08-03T04:53:26;2.73;;;2.50;;
4794;SDS011;2411;47.060;15.064;2022-08-03T04:55:53;2.50;;;2.30;;
4794;SDS011;2411;47.060;15.064;2022-08-03T04:58:20;2.23;;;2.03;;
4794;SDS011;2411;47.060;15.064;2022-08-03T05:00:47;2.13;;;2.03;;
4794;SDS011;2411;47.060;15.064;2022-08-03T05:03:16;2.13;;;2.03;;
4794;SDS011;2411;47.060;15.064;2022-08-03T05:05:50;2.20;;;2.10;;
4794;SDS011;2411;47.060;15.064;2022-08-03T05:08:35;1.60;;;1.60;;
4794;SDS011;2411;47.060;15.064;2022-08-03T05:11:13;3.73;;;2.43;;
4794;SDS011;2411;47.060;15.064;2022-08-03T05:13:41;2.10;;;2.00;;
4794;SDS011;2411;47.060;15.064;2022-08-03T05:16:08;2.13;;;1.97;;
4794;SDS011;2411;47.060;15.064;2022-08-03T05:18:35;2.57;;;2.47;;
4794;SDS011;2411;47.060;15.064;2022-08-03T05:21:02;2.33;;;2.13;;
4794;SDS011;2411;47.060;15.064;2022-08-03T05:23:30;3.40;;;2.10;;
4794;SDS011;2411;47.060;15.064;2022-08-03T05:25:57;3.00;;;2.10;;
4794;SDS011;2411;47.060;15.064;2022-08-03T05:28:24;4.40;;;2.30;;
4794;SDS011;2411;47.060;15.064;2022-08-03T05:30:51;2.57;;;2.47;;
4794;SDS011;2411;47.060;15.064;2022-08-03T05:33:18;2.40;;;2.10;;
4794;SDS011;2411;47.060;15.064;2022-08-03T05:35:44;3.60;;;2.00;;
4794;SDS011;2411;47.060;15.064;2022-08-03T05:38:29;2.63;;;1.90;;
4794;SDS011;2411;47.060;15.064;2022-08-03T05:41:02;5.07;;;2.30;;
4794;SDS011;2411;47.060;15.064;2022-08-03T05:43:48;1.93;;;1.80;;
4794;SDS011;2411;47.060;15.064;2022-08-03T05:46:15;2.80;;;2.17;;
4794;SDS011;2411;47.060;15.064;2022-08-03T05:48:42;1.90;;;1.80;;
4794;SDS011;2411;47.060;15.064;2022-08-03T05:51:09;2.10;;;2.00;;
4794;SDS011;2411;47.060;15.064;2022-08-03T05:53:39;2.30;;;2.20;;
4794;SDS011;2411;47.060;15.064;2022-08-03T05:56:07;3.07;;;1.87;;
4794;SDS011;2411;47.060;15.064;2022-08-03T05:58:41;3.87;;;2.10;;
4794;SDS011;2411;47.060;15.064;2022-08-03T06:01:09;2.67;;;2.10;;
4794;SDS011;2411;47.060;15.064;2022-08-03T06:03:36;3.10;;;2.07;;
4794;SDS011;2411;47.060;15.064;2022-08-03T06:06:03;6.60;;;1.80;;
4794;SDS011;2411;47.060;15.064;2022-08-03T06:08:30;4.47;;;2.47;;
4794;SDS011;2411;47.060;15.064;2022-08-03T06:10:57;10.37;;;2.00;;
4794;SDS011;2411;47.060;15.064;2022-08-03T06:13:24;3.60;;;1.80;;
4794;SDS011;2411;47.060;15.064;2022-08-03T06:15:51;3.87;;;2.70;;
4794;SDS011;2411;47.060;15.064;2022-08-03T06:18:18;4.30;;;2.50;;
4794;SDS011;2411;47.060;15.064;2022-08-03T06:20:45;2.70;;;2.00;;
4794;SDS011;2411;47.060;15.064;2022-08-03T06:23:15;7.50;;;2.20;;
4794;SDS011;2411;47.060;15.064;2022-08-03T06:25:43;3.83;;;2.43;;
4794;SDS011;2411;47.060;15.064;2022-08-03T06:28:11;2.93;;;2.07;;
4794;SDS011;2411;47.060;15.064;2022-08-03T06:31:01;3.60;;;2.10;;
4794;SDS011;2411;47.060;15.064;2022-08-03T06:33:31;5.73;;;2.13;;
4794;SDS011;2411;47.060;15.064;2022-08-03T06:36:18;3.00;;;2.00;;
4794;SDS011;2411;47.060;15.064;2022-08-03T06:38:45;3.70;;;2.50;;
4794;SDS011;2411;47.060;15.064;2022-08-03T06:41:12;5.90;;;2.90;;
4794;SDS011;2411;47.060;15.064;2022-08-03T06:43:39;3.63;;;2.30;;
4794;SDS011;2411;47.060;15.064;2022-08-03T06:46:27;4.33;;;2.27;;
4794;SDS011;2411;47.060;15.064;2022-08-03T06:48:54;4.60;;;2.17;;
4794;SDS011;2411;47.060;15.064;2022-08-03T06:51:21;3.73;;;2.10;;
4794;SDS011;2411;47.060;15.064;2022-08-03T06:54:08;3.07;;;2.30;;
4794;SDS011;2411;47.060;15.064;2022-08-03T06:56:36;3.20;;;2.30;;
4794;SDS011;2411;47.060;15.064;2022-08-03T06:59:03;4.13;;;2.23;;
4794;SDS011;2411;47.060;15.064;2022-08-03T07:01:30;6.20;;;2.03;;
4794;SDS011;2411;47.060;15.064;2022-08-03T07:03:57;2.47;;;2.30;;
4794;SDS011;2411;47.060;15.064;2022-08-03T07:06:24;6.40;;;2.00;;
4794;SDS011;2411;47.060;15.064;2022-08-03T07:08:51;2.30;;;2.13;;
4794;SDS011;2411;47.060;15.064;2022-08-03T07:11:24;10.87;;;2.40;;
4794;SDS011;2411;47.060;15.064;2022-08-03T07:13:51;5.20;;;2.10;;
4794;SDS011;2411;47.060;15.064;2022-08-03T07:16:18;7.33;;;2.30;;
4794;SDS011;2411;47.060;15.064;2022-08-03T07:18:45;2.93;;;2.20;;
4794;SDS011;2411;47.060;15.064;2022-08-03T07:21:12;2.87;;;2.33;;
4794;SDS011;2411;47.060;15.064;2022-08-03T07:23:39;8.00;;;3.03;;
4794;SDS011;2411;47.060;15.064;2022-08-03T07:26:06;4.60;;;2.07;;
4794;SDS011;2411;47.060;15.064;2022-08-03T07:28:32;2.10;;;2.00;;
4794;SDS011;2411;47.060;15.064;2022-08-03T07:30:59;2.30;;;2.20;;
4794;SDS011;2411;47.060;15.064;2022-08-03T07:33:26;1.90;;;1.80;;
4794;SDS011;2411;47.060;15.064;2022-08-03T07:35:53;2.07;;;1.97;;
4794;SDS011;2411;47.060;15.064;2022-08-03T07:38:20;2.30;;;2.10;;
4794;SDS011;2411;47.060;15.064;2022-08-03T07:40:47;1.63;;;1.53;;
4794;SDS011;2411;47.060;15.064;2022-08-03T07:43:14;1.93;;;1.83;;
4794;SDS011;2411;47.060;15.064;2022-08-03T07:45:42;2.20;;;2.00;;
4794;SDS011;2411;47.060;15.064;2022-08-03T07:48:09;4.63;;;2.37;;
4794;SDS011;2411;47.060;15.064;2022-08-03T07:50:37;2.07;;;1.97;;
4794;SDS011;2411;47.060;15.064;2022-08-03T07:53:04;1.70;;;1.60;;
4794;SDS011;2411;47.060;15.064;2022-08-03T07:55:31;2.97;;;2.00;;
4794;SDS011;2411;47.060;15.064;2022-08-03T07:57:59;2.30;;;1.83;;
4794;SDS011;2411;47.060;15.064;2022-08-03T08:00:26;3.87;;;1.90;;
4794;SDS011;2411;47.060;15.064;2022-08-03T08:02:53;7.00;;;1.70;;
4794;SDS011;2411;47.060;15.064;2022-08-03T08:05:20;2.00;;;1.90;;
4794;SDS011;2411;47.060;15.064;2022-08-03T08:07:47;2.20;;;2.00;;
4794;SDS011;2411;47.060;15.064;2022-08-03T08:10:17;3.40;;;2.00;;
4794;SDS011;2411;47.060;15.064;2022-08-03T08:12:44;3.17;;;2.20;;
4794;SDS011;2411;47.060;15.064;2022-08-03T08:15:11;3.37;;;2.10;;
4794;SDS011;2411;47.060;15.064;2022-08-03T08:17:46;1.43;;;1.43;;
4794;SDS011;2411;47.060;15.064;2022-08-03T08:20:15;2.77;;;2.27;;
4794;SDS011;2411;47.060;15.064;2022-08-03T08:22:54;2.13;;;2.03;;
4794;SDS011;2411;47.060;15.064;2022-08-03T08:25:23;3.17;;;1.90;;
4794;SDS011;2411;47.060;15.064;2022-08-03T08:27:50;2.80;;;2.23;;
4794;SDS011;2411;47.060;15.064;2022-08-03T08:30:38;2.67;;;2.20;;
4794;SDS011;2411;47.060;15.064;2022-08-03T08:33:05;2.40;;;2.20;;
4794;SDS011;2411;47.060;15.064;2022-08-03T08:35:31;2.60;;;2.23;;
4794;SDS011;2411;47.060;15.064;2022-08-03T08:37:59;2.10;;;2.00;;
4794;SDS011;2411;47.060;15.064;2022-08-03T08:40:31;5.00;;;2.20;;
4794;SDS011;2411;47.060;15.064;2022-08-03T08:42:58;7.30;;;2.03;;
4794;SDS011;2411;47.060;15.064;2022-08-03T08:45:25;1.83;;;1.73;;
4794;SDS011;2411;47.060;15.064;2022-08-03T08:47:54;2.20;;;2.10;;
4794;SDS011;2411;47.060;15.064;2022-08-03T08:50:29;2.00;;;1.80;;
4794;SDS011;2411;47.060;15.064;2022-08-03T08:52:56;1.87;;;1.77;;
4794;SDS011;2411;47.060;15.064;2022-08-03T08:55:27;1.97;;;1.87;;
4794;SDS011;2411;47.060;15.064;2022-08-03T08:58:15;5.20;;;2.40;;
4794;SDS011;2411;47.060;15.064;2022-08-03T09:00:46;3.70;;;2.00;;
4794;SDS011;2411;47.060;15.064;2022-08-03T09:03:13;2.20;;;2.00;;
4794;SDS011;2411;47.060;15.064;2022-08-03T09:05:55;1.80;;;1.70;;
4794;SDS011;2411;47.060;15.064;2022-08-03T09:08:27;2.07;;;1.97;;
4794;SDS011;2411;47.060;15.064;2022-08-03T09:10:55;3.10;;;1.90;;
4794;SDS011;2411;47.060;15.064;2022-08-03T09:13:23;1.70;;;1.60;;
4794;SDS011;2411;47.060;15.064;2022-08-03T09:18:42;1.97;;;1.87;;
4794;SDS011;2411;47.060;15.064;2022-08-03T09:23:58;1.63;;;1.53;;
4794;SDS011;2411;47.060;15.064;2022-08-03T09:26:29;4.07;;;2.20;;
4794;SDS011;2411;47.060;15.064;2022-08-03T09:29:01;2.33;;;2.13;;
4794;SDS011;2411;47.060;15.064;2022-08-03T09:31:39;1.77;;;1.67;;
4794;SDS011;2411;47.060;15.064;2022-08-03T09:34:12;1.90;;;1.80;;
4794;SDS011;2411;47.060;15.064;2022-08-03T09:36:44;2.13;;;2.00;;
4794;SDS011;2411;47.060;15.064;2022-08-03T09:39:14;2.40;;;1.50;;
4794;SDS011;2411;47.060;15.064;2022-08-03T09:44:35;2.50;;;1.77;;
4794;SDS011;2411;47.060;15.064;2022-08-03T09:47:03;1.80;;;1.70;;
4794;SDS011;2411;47.060;15.064;2022-08-03T09:49:35;4.90;;;1.77;;
4794;SDS011;2411;47.060;15.064;2022-08-03T09:52:13;2.17;;;1.60;;
4794;SDS011;2411;47.060;15.064;2022-08-03T09:55:07;2.10;;;1.50;;
4794;SDS011;2411;47.060;15.064;2022-08-03T09:58:05;2.80;;;1.47;;
4794;SDS011;2411;47.060;15.064;2022-08-03T10:00:51;1.47;;;1.27;;
4794;SDS011;2411;47.060;15.064;2022-08-03T10:03:20;3.67;;;1.80;;
4794;SDS011;2411;47.060;15.064;2022-08-03T10:05:47;1.80;;;1.70;;
4794;SDS011;2411;47.060;15.064;2022-08-03T10:08:15;1.70;;;1.60;;
4794;SDS011;2411;47.060;15.064;2022-08-03T10:10:45;1.43;;;1.33;;
4794;SDS011;2411;47.060;15.064;2022-08-03T10:13:17;1.67;;;1.57;;
4794;SDS011;2411;47.060;15.064;2022-08-03T10:15:45;1.33;;;1.33;;
4794;SDS011;2411;47.060;15.064;2022-08-03T10:18:32;1.77;;;1.67;;
4794;SDS011;2411;47.060;15.064;2022-08-03T10:21:06;1.87;;;1.67;;
4794;SDS011;2411;47.060;15.064;2022-08-03T10:23:36;2.40;;;1.50;;
4794;SDS011;2411;47.060;15.064;2022-08-03T10:26:04;2.40;;;1.43;;
4794;SDS011;2411;47.060;15.064;2022-08-03T10:28:34;1.93;;;1.83;;
4794;SDS011;2411;47.060;15.064;2022-08-03T10:31:10;1.50;;;1.43;;
4794;SDS011;2411;47.060;15.064;2022-08-03T10:33:40;3.13;;;1.67;;
4794;SDS011;2411;47.060;15.064;2022-08-03T10:36:17;2.20;;;2.10;;
4794;SDS011;2411;47.060;15.064;2022-08-03T10:38:48;2.87;;;1.50;;
4794;SDS011;2411;47.060;15.064;2022-08-03T10:41:25;1.60;;;1.50;;
4794;SDS011;2411;47.060;15.064;2022-08-03T10:44:07;1.57;;;1.50;;
4794;SDS011;2411;47.060;15.064;2022-08-03T10:46:37;1.60;;;1.50;;
4794;SDS011;2411;47.060;15.064;2022-08-03T10:49:13;1.80;;;1.70;;
4794;SDS011;2411;47.060;15.064;2022-08-03T10:51:56;1.33;;;1.23;;
4794;SDS011;2411;47.060;15.064;2022-08-03T10:54:37;1.40;;;1.30;;
4794;SDS011;2411;47.060;15.064;2022-08-03T10:57:51;1.53;;;1.30;;
4794;SDS011;2411;47.060;15.064;2022-08-03T11:00:24;2.13;;;1.50;;
4794;SDS011;2411;47.060;15.064;2022-08-03T11:03:00;6.17;;;1.30;;
4794;SDS011;2411;47.060;15.064;2022-08-03T11:05:30;1.30;;;1.20;;
4794;SDS011;2411;47.060;15.064;2022-08-03T11:08:18;1.73;;;1.40;;
4794;SDS011;2411;47.060;15.064;2022-08-03T11:10:45;1.37;;;1.10;;
4794;SDS011;2411;47.060;15.064;2022-08-03T11:13:14;1.30;;;1.30;;
4794;SDS011;2411;47.060;15.064;2022-08-03T11:15:47;1.43;;;1.33;;
4794;SDS011;2411;47.060;15.064;2022-08-03T11:18:16;1.50;;;1.40;;
4794;SDS011;2411;47.060;15.064;2022-08-03T11:20:45;1.30;;;1.20;;
4794;SDS011;2411;47.060;15.064;2022-08-03T11:23:38;1.23;;;1.13;;
4794;SDS011;2411;47.060;15.064;2022-08-03T11:26:30;2.10;;;1.17;;
4794;SDS011;2411;47.060;15.064;2022-08-03T11:29:25;9.57;;;1.50;;
4794;SDS011;2411;47.060;15.064;2022-08-03T11:31:54;1.37;;;1.27;;
4794;SDS011;2411;47.060;15.064;2022-08-03T11:34:22;1.63;;;1.53;;
4794;SDS011;2411;47.060;15.064;2022-08-03T11:39:51;1.30;;;1.20;;
4794;SDS011;2411;47.060;15.064;2022-08-03T11:44:50;1.10;;;1.10;;
4794;SDS011;2411;47.060;15.064;2022-08-03T11:47:27;1.10;;;1.00;;
4794;SDS011;2411;47.060;15.064;2022-08-03T11:49:56;1.87;;;1.20;;
4794;SDS011;2411;47.060;15.064;2022-08-03T11:52:25;1.00;;;1.00;;
4794;SDS011;2411;47.060;15.064;2022-08-03T11:54:59;1.20;;;1.10;;
4794;SDS011;2411;47.060;15.064;2022-08-03T11:57:30;1.33;;;1.23;;
4794;SDS011;2411;47.060;15.064;2022-08-03T12:00:36;1.00;;;0.83;;
4794;SDS011;2411;47.060;15.064;2022-08-03T12:03:07;1.20;;;1.10;;
4794;SDS011;2411;47.060;15.064;2022-08-03T12:05:47;1.20;;;1.13;;
4794;SDS011;2411;47.060;15.064;2022-08-03T12:08:38;3.07;;;1.10;;
4794;SDS011;2411;47.060;15.064;2022-08-03T12:11:07;1.00;;;1.00;;
4794;SDS011;2411;47.060;15.064;2022-08-03T12:13:41;1.30;;;1.20;;
4794;SDS011;2411;47.060;15.064;2022-08-03T12:16:29;1.17;;;1.07;;
4794;SDS011;2411;47.060;15.064;2022-08-03T12:18:59;1.17;;;1.17;;
4794;SDS011;2411;47.060;15.064;2022-08-03T12:21:30;1.00;;;1.00;;
4794;SDS011;2411;47.060;15.064;2022-08-03T12:23:58;1.10;;;1.10;;
4794;SDS011;2411;47.060;15.064;2022-08-03T12:26:42;1.10;;;1.10;;
4794;SDS011;2411;47.060;15.064;2022-08-03T12:29:24;3.80;;;1.20;;
4794;SDS011;2411;47.060;15.064;2022-08-03T12:31:51;2.80;;;1.00;;
4794;SDS011;2411;47.060;15.064;2022-08-03T12:34:18;1.20;;;1.03;;
4794;SDS011;2411;47.060;15.064;2022-08-03T12:36:52;1.00;;;1.00;;
4794;SDS011;2411;47.060;15.064;2022-08-03T12:39:25;1.07;;;1.00;;
4794;SDS011;2411;47.060;15.064;2022-08-03T12:41:56;1.10;;;1.10;;
4794;SDS011;2411;47.060;15.064;2022-08-03T12:44:33;1.90;;;1.00;;
4794;SDS011;2411;47.060;15.064;2022-08-03T12:47:02;2.97;;;1.00;;
4794;SDS011;2411;47.060;15.064;2022-08-03T12:49:46;1.23;;;1.13;;
4794;SDS011;2411;47.060;15.064;2022-08-03T12:52:19;2.30;;;0.90;;
4794;SDS011;2411;47.060;15.064;2022-08-03T12:54:57;1.10;;;1.10;;
4794;SDS011;2411;47.060;15.064;2022-08-03T12:57:38;1.10;;;1.10;;
4794;SDS011;2411;47.060;15.064;2022-08-03T13:00:13;1.30;;;1.10;;
4794;SDS011;2411;47.060;15.064;2022-08-03T13:03:04;1.30;;;0.90;;
4794;SDS011;2411;47.060;15.064;2022-08-03T13:05:52;1.10;;;1.00;;
4794;SDS011;2411;47.060;15.064;2022-08-03T13:08:23;1.10;;;1.10;;
4794;SDS011;2411;47.060;15.064;2022-08-03T13:10:51;1.40;;;1.30;;
4794;SDS011;2411;47.060;15.064;2022-08-03T13:13:36;1.30;;;1.20;;
4794;SDS011;2411;47.060;15.064;2022-08-03T13:16:04;2.20;;;1.20;;
4794;SDS011;2411;47.060;15.064;2022-08-03T13:18:32;1.47;;;1.27;;
4794;SDS011;2411;47.060;15.064;2022-08-03T13:20:59;1.30;;;1.20;;
4794;SDS011;2411;47.060;15.064;2022-08-03T13:23:26;1.40;;;1.20;;
4794;SDS011;2411;47.060;15.064;2022-08-03T13:25:53;2.90;;;1.47;;
4794;SDS011;2411;47.060;15.064;2022-08-03T13:28:21;1.20;;;1.20;;
4794;SDS011;2411;47.060;15.064;2022-08-03T13:30:48;1.33;;;1.23;;
4794;SDS011;2411;47.060;15.064;2022-08-03T13:33:15;1.10;;;1.10;;
4794;SDS011;2411;47.060;15.064;2022-08-03T13:35:42;1.27;;;1.20;;
4794;SDS011;2411;47.060;15.064;2022-08-03T13:38:09;1.07;;;0.97;;
4794;SDS011;2411;47.060;15.064;2022-08-03T13:40:36;1.00;;;1.00;;
4794;SDS011;2411;47.060;15.064;2022-08-03T13:43:07;3.13;;;1.23;;
4794;SDS011;2411;47.060;15.064;2022-08-03T13:45:34;1.00;;;1.00;;
4794;SDS011;2411;47.060;15.064;2022-08-03T13:48:01;3.33;;;1.20;;
4794;SDS011;2411;47.060;15.064;2022-08-03T13:50:28;1.57;;;1.20;;
4794;SDS011;2411;47.060;15.064;2022-08-03T13:52:56;1.60;;;1.50;;
4794;SDS011;2411;47.060;15.064;2022-08-03T13:55:24;1.20;;;1.20;;
4794;SDS011;2411;47.060;15.064;2022-08-03T13:57:51;1.27;;;1.17;;
4794;SDS011;2411;47.060;15.064;2022-08-03T14:00:32;1.20;;;1.10;;
4794;SDS011;2411;47.060;15.064;2022-08-03T14:03:00;1.63;;;1.43;;
4794;SDS011;2411;47.060;15.064;2022-08-03T14:05:37;1.20;;;1.10;;
4794;SDS011;2411;47.060;15.064;2022-08-03T14:08:05;1.50;;;1.40;;
4794;SDS011;2411;47.060;15.064;2022-08-03T14:10:33;1.10;;;1.10;;
4794;SDS011;2411;47.060;15.064;2022-08-03T14:13:06;1.50;;;1.40;;
4794;SDS011;2411;47.060;15.064;2022-08-03T14:15:34;2.30;;;1.60;;
4794;SDS011;2411;47.060;15.064;2022-08-03T14:18:04;1.37;;;1.27;;
4794;SDS011;2411;47.060;15.064;2022-08-03T14:20:40;1.20;;;1.20;;
4794;SDS011;2411;47.060;15.064;2022-08-03T14:23:15;1.30;;;1.20;;
4794;SDS011;2411;47.060;15.064;2022-08-03T14:25:43;1.33;;;1.33;;
4794;SDS011;2411;47.060;15.064;2022-08-03T14:28:18;1.20;;;1.20;;
4794;SDS011;2411;47.060;15.064;2022-08-03T14:30:50;1.47;;;1.10;;
4794;SDS011;2411;47.060;15.064;2022-08-03T14:33:18;1.30;;;1.20;;
4794;SDS011;2411;47.060;15.064;2022-08-03T14:35:45;3.70;;;1.60;;
4794;SDS011;2411;47.060;15.064;2022-08-03T14:38:13;1.20;;;1.10;;
4794;SDS011;2411;47.060;15.064;2022-08-03T14:40:40;1.10;;;1.10;;
4794;SDS011;2411;47.060;15.064;2022-08-03T14:43:08;1.10;;;1.10;;
4794;SDS011;2411;47.060;15.064;2022-08-03T14:45:35;4.30;;;1.23;;
4794;SDS011;2411;47.060;15.064;2022-08-03T14:48:03;1.50;;;1.40;;
4794;SDS011;2411;47.060;15.064;2022-08-03T14:50:51;2.13;;;1.43;;
4794;SDS011;2411;47.060;15.064;2022-08-03T14:53:20;1.27;;;1.17;;
4794;SDS011;2411;47.060;15.064;2022-08-03T14:55:48;1.30;;;1.20;;
4794;SDS011;2411;47.060;15.064;2022-08-03T14:58:20;1.50;;;1.40;;
4794;SDS011;2411;47.060;15.064;2022-08-03T15:00:49;1.63;;;1.53;;
4794;SDS011;2411;47.060;15.064;2022-08-03T15:03:18;1.57;;;1.47;;
4794;SDS011;2411;47.060;15.064;2022-08-03T15:05:52;1.57;;;1.47;;
4794;SDS011;2411;47.060;15.064;2022-08-03T15:08:23;1.80;;;1.50;;
4794;SDS011;2411;47.060;15.064;2022-08-03T15:10:52;2.30;;;1.10;;
4794;SDS011;2411;47.060;15.064;2022-08-03T15:13:20;1.50;;;1.20;;
4794;SDS011;2411;47.060;15.064;2022-08-03T15:15:47;1.13;;;1.13;;
4794;SDS011;2411;47.060;15.064;2022-08-03T15:18:15;1.53;;;1.50;;
4794;SDS011;2411;47.060;15.064;2022-08-03T15:20:42;1.67;;;1.57;;
4794;SDS011;2411;47.060;15.064;2022-08-03T15:23:12;1.53;;;1.43;;
4794;SDS011;2411;47.060;15.064;2022-08-03T15:25:40;1.30;;;1.20;;
4794;SDS011;2411;47.060;15.064;2022-08-03T15:28:28;4.57;;;1.70;;
4794;SDS011;2411;47.060;15.064;2022-08-03T15:30:55;1.30;;;1.20;;
4794;SDS011;2411;47.060;15.064;2022-08-03T15:33:22;1.40;;;1.30;;
4794;SDS011;2411;47.060;15.064;2022-08-03T15:35:49;1.37;;;1.27;;
4794;SDS011;2411;47.060;15.064;2022-08-03T15:38:17;2.70;;;1.37;;
4794;SDS011;2411;47.060;15.064;2022-08-03T15:40:44;1.27;;;1.27;;
4794;SDS011;2411;47.060;15.064;2022-08-03T15:43:11;1.30;;;1.20;;
4794;SDS011;2411;47.060;15.064;2022-08-03T15:45:38;1.27;;;1.27;;
4794;SDS011;2411;47.060;15.064;2022-08-03T15:48:07;1.43;;;1.33;;
4794;SDS011;2411;47.060;15.064;2022-08-03T15:50:34;3.43;;;1.50;;